createdAt,value
2018-09-12T00:00:31.067Z,75.11
2018-09-12T00:01:35.571Z,75.21
2018-09-12T00:02:40.433Z,75.43
2018-09-12T00:03:44.923Z,75.64
2018-09-12T00:04:49.935Z,75.63
2018-09-12T00:05:54.911Z,75.82
2018-09-12T00:06:59.424Z,75.90
2018-09-12T00:08:04.217Z,75.72
2018-09-12T00:09:11.182Z,76.18
2018-09-12T00:10:16.586Z,75.93
2018-09-12T00:11:21.996Z,75.68
2018-09-12T00:12:27.406Z,75.70
2018-09-12T00:13:31.860Z,75.82
2018-09-12T00:14:37.231Z,75.78
2018-09-12T00:15:42.728Z,75.95
2018-09-12T00:16:47.559Z,75.86
2018-09-12T00:17:52.033Z,75.82
2018-09-12T00:18:56.852Z,75.93
2018-09-12T00:20:01.520Z,75.98
2018-09-12T00:21:06.599Z,75.87
2018-09-12T00:22:11.217Z,75.97
2018-09-12T00:23:15.667Z,76.09
2018-09-12T00:24:20.398Z,76.27
2018-09-12T00:25:24.875Z,76.52
2018-09-12T00:26:29.381Z,76.31
2018-09-12T00:27:34.212Z,76.68
2018-09-12T00:28:39.198Z,76.76
2018-09-12T00:29:43.791Z,76.47
2018-09-12T00:30:48.296Z,76.52
2018-09-12T00:31:52.823Z,76.58
2018-09-12T00:32:57.324Z,76.82
2018-09-12T00:34:03.008Z,76.77
2018-09-12T00:35:07.498Z,77.07
2018-09-12T00:36:12.042Z,77.01
2018-09-12T00:37:16.555Z,76.99
2018-09-12T00:38:21.059Z,77.07
2018-09-12T00:39:25.534Z,77.11
2018-09-12T00:40:30.500Z,76.88
2018-09-12T00:41:34.983Z,76.99
2018-09-12T00:42:39.452Z,77.31
2018-09-12T00:43:43.956Z,77.20
2018-09-12T00:44:48.448Z,77.31
2018-09-12T00:45:53.142Z,77.38
2018-09-12T00:46:57.996Z,77.20
2018-09-12T00:48:02.715Z,77.69
2018-09-12T00:49:08.328Z,77.66
2018-09-12T00:50:12.962Z,78.10
2018-09-12T00:51:17.884Z,78.19
2018-09-12T00:52:23.781Z,78.45
2018-09-12T00:53:28.574Z,78.29
2018-09-12T00:54:33.184Z,78.33
2018-09-12T00:55:37.769Z,78.54
2018-09-12T00:56:42.382Z,78.74
2018-09-12T00:57:46.864Z,79.12
2018-09-12T00:58:51.889Z,78.92
2018-09-12T00:59:56.656Z,78.95
2018-09-12T01:01:01.216Z,78.92
2018-09-12T01:02:05.766Z,78.92
2018-09-12T01:03:10.264Z,79.11
2018-09-12T01:04:14.793Z,78.83
2018-09-12T01:05:19.282Z,79.27
2018-09-12T01:06:24.339Z,79.49
2018-09-12T01:07:28.803Z,79.48
2018-09-12T01:08:33.339Z,79.53
2018-09-12T01:09:37.781Z,79.81
2018-09-12T01:10:42.295Z,80.39
2018-09-12T01:11:47.583Z,80.71
2018-09-12T01:13:03.201Z,80.46
2018-09-12T01:14:07.663Z,80.75
2018-09-12T01:15:12.225Z,81.04
2018-09-12T01:16:16.692Z,80.81
2018-09-12T01:17:21.201Z,81.02
2018-09-12T01:18:25.675Z,80.82
2018-09-12T01:19:30.968Z,81.19
2018-09-12T01:20:35.479Z,81.28
2018-09-12T01:21:39.951Z,81.10
2018-09-12T01:22:44.425Z,81.29
2018-09-12T01:23:48.893Z,80.95
2018-09-12T01:24:53.401Z,80.99
2018-09-12T01:25:58.127Z,81.16
2018-09-12T01:27:02.686Z,81.20
2018-09-12T01:28:07.165Z,81.18
2018-09-12T01:29:11.680Z,81.42
2018-09-12T01:30:20.264Z,81.14
2018-09-12T01:31:24.853Z,81.07
2018-09-12T01:32:29.603Z,81.19
2018-09-12T01:33:34.503Z,80.75
2018-09-12T01:34:38.985Z,80.79
2018-09-12T01:35:43.703Z,80.68
2018-09-12T01:36:48.161Z,80.44
2018-09-12T01:37:52.896Z,80.45
2018-09-12T01:38:57.674Z,80.18
2018-09-12T01:40:02.445Z,80.27
2018-09-12T01:41:06.991Z,80.05
2018-09-12T01:42:11.926Z,79.93
2018-09-12T01:43:16.440Z,80.13
2018-09-12T01:44:20.987Z,80.09
2018-09-12T01:45:25.761Z,80.31
2018-09-12T01:46:30.316Z,80.73
2018-09-12T01:47:34.782Z,80.84
2018-09-12T01:48:39.244Z,80.68
2018-09-12T01:49:44.086Z,80.85
2018-09-12T01:50:48.538Z,80.69
2018-09-12T01:51:53.384Z,81.05
2018-09-12T01:52:57.901Z,80.82
2018-09-12T01:54:02.555Z,80.96
2018-09-12T01:55:07.196Z,80.90
2018-09-12T01:56:11.748Z,81.07
2018-09-12T01:57:16.293Z,80.86
2018-09-12T01:58:21.856Z,81.16
2018-09-12T01:59:27.334Z,81.29
2018-09-12T02:00:36.894Z,81.47
2018-09-12T02:01:41.635Z,81.37
2018-09-12T02:02:47.104Z,81.26
2018-09-12T02:03:51.701Z,81.43
2018-09-12T02:04:56.502Z,81.72
2018-09-12T02:06:00.982Z,81.43
2018-09-12T02:07:05.453Z,81.54
2018-09-12T02:08:09.913Z,81.85
2018-09-12T02:09:15.467Z,81.68
2018-09-12T02:10:20.004Z,81.99
2018-09-12T02:11:25.044Z,82.03
2018-09-12T02:12:30.238Z,82.22
2018-09-12T02:13:35.754Z,82.17
2018-09-12T02:14:40.218Z,82.21
2018-09-12T02:15:44.693Z,82.37
2018-09-12T02:16:49.278Z,82.17
2018-09-12T02:17:55.990Z,82.25
2018-09-12T02:19:00.620Z,82.03
2018-09-12T02:20:05.690Z,82.29
2018-09-12T02:21:11.193Z,82.59
2018-09-12T02:22:17.630Z,82.46
2018-09-12T02:23:23.363Z,82.60
2018-09-12T02:24:28.203Z,83.10
2018-09-12T02:25:33.945Z,83.19
2018-09-12T02:26:38.516Z,83.00
2018-09-12T02:27:42.980Z,83.02
2018-09-12T02:28:47.504Z,82.92
2018-09-12T02:29:52.120Z,83.09
2018-09-12T02:30:57.729Z,83.08
2018-09-12T02:32:02.534Z,82.79
2018-09-12T02:33:08.581Z,82.65
2018-09-12T02:34:13.989Z,82.78
2018-09-12T02:35:18.905Z,82.64
2018-09-12T02:36:30.448Z,82.38
2018-09-12T02:37:35.393Z,82.51
2018-09-12T02:38:40.309Z,82.53
2018-09-12T02:39:44.819Z,82.51
2018-09-12T02:40:49.421Z,82.60
2018-09-12T02:41:53.863Z,82.34
2018-09-12T02:42:58.696Z,82.62
2018-09-12T02:44:03.380Z,82.74
2018-09-12T02:45:08.002Z,82.43
2018-09-12T02:46:12.655Z,82.78
2018-09-12T02:47:22.244Z,82.42
2018-09-12T02:48:26.755Z,82.63
2018-09-12T02:49:31.270Z,82.53
2018-09-12T02:50:35.768Z,82.58
2018-09-12T02:51:40.276Z,82.67
2018-09-12T02:52:44.772Z,82.49
2018-09-12T02:53:49.291Z,82.71
2018-09-12T02:54:54.215Z,82.65
2018-09-12T02:55:58.718Z,82.49
2018-09-12T02:57:03.144Z,82.61
2018-09-12T02:58:07.590Z,82.56
2018-09-12T03:01:43.681Z,82.38
2018-09-12T03:02:48.082Z,82.16
2018-09-12T03:05:13.777Z,82.70
2018-09-12T03:06:18.247Z,82.58
2018-09-12T03:07:23.132Z,82.62
2018-09-12T03:08:27.715Z,82.68
2018-09-12T03:09:32.206Z,82.76
2018-09-12T03:10:36.871Z,82.55
2018-09-12T03:11:41.827Z,82.79
2018-09-12T03:12:46.654Z,82.69
2018-09-12T03:13:51.636Z,82.94
2018-09-12T03:14:56.055Z,83.22
2018-09-12T03:16:00.556Z,83.50
2018-09-12T03:17:05.026Z,83.47
2018-09-12T03:18:09.519Z,83.76
2018-09-12T03:19:14.018Z,83.97
2018-09-12T03:20:18.988Z,84.06
2018-09-12T03:21:23.494Z,83.72
2018-09-12T03:22:27.961Z,83.81
2018-09-12T03:23:32.409Z,83.85
2018-09-12T03:24:37.131Z,83.88
2018-09-12T03:25:41.662Z,83.84
2018-09-12T03:26:46.582Z,83.86
2018-09-12T03:27:51.197Z,83.81
2018-09-12T03:28:55.826Z,83.69
2018-09-12T03:30:00.324Z,83.62
2018-09-12T03:31:04.795Z,83.86
2018-09-12T03:32:09.269Z,84.05
2018-09-12T03:33:14.170Z,83.84
2018-09-12T03:34:18.695Z,83.89
2018-09-12T03:35:23.176Z,83.67
2018-09-12T03:36:28.267Z,84.00
2018-09-12T03:37:32.777Z,83.65
2018-09-12T03:38:37.263Z,83.78
2018-09-12T03:39:42.078Z,83.61
2018-09-12T03:40:46.606Z,83.58
2018-09-12T03:41:51.927Z,83.66
2018-09-12T03:42:56.403Z,83.75
2018-09-12T03:44:00.889Z,83.47
2018-09-12T03:45:05.371Z,83.32
2018-09-12T03:46:10.145Z,83.56
2018-09-12T03:47:14.744Z,83.27
2018-09-12T03:48:19.557Z,83.44
2018-09-12T03:49:24.080Z,83.49
2018-09-12T03:50:28.525Z,83.59
2018-09-12T03:51:33.011Z,83.49
2018-09-12T03:52:37.864Z,83.67
2018-09-12T03:53:42.483Z,83.65
2018-09-12T03:54:46.993Z,83.38
2018-09-12T03:55:51.481Z,83.75
2018-09-12T03:56:55.954Z,83.63
2018-09-12T03:58:00.410Z,83.27
2018-09-12T03:59:05.554Z,83.65
2018-09-12T04:00:10.747Z,83.45
2018-09-12T04:01:15.517Z,83.42
2018-09-12T04:02:20.061Z,83.24
2018-09-12T04:03:24.546Z,83.27
2018-09-12T04:04:29.035Z,83.22
2018-09-12T04:05:33.946Z,83.19
2018-09-12T04:06:38.440Z,83.54
2018-09-12T04:07:42.937Z,83.60
2018-09-12T04:08:47.465Z,83.23
2018-09-12T04:09:52.106Z,83.39
2018-09-12T04:10:56.565Z,83.29
2018-09-12T04:12:01.676Z,83.46
2018-09-12T04:13:06.206Z,83.63
2018-09-12T04:14:10.700Z,83.44
2018-09-12T04:15:15.203Z,83.69
2018-09-12T04:16:19.722Z,83.44
2018-09-12T04:17:29.896Z,83.63
2018-09-12T04:18:34.814Z,83.27
2018-09-12T04:19:40.087Z,83.29
2018-09-12T04:20:44.560Z,83.17
2018-09-12T04:21:49.066Z,83.41
2018-09-12T04:22:54.022Z,83.17
2018-09-12T04:23:59.110Z,83.12
2018-09-12T04:25:03.828Z,83.33
2018-09-12T04:26:08.277Z,83.28
2018-09-12T04:27:12.727Z,83.23
2018-09-12T04:28:17.199Z,83.60
2018-09-12T04:29:21.668Z,83.52
2018-09-12T04:30:26.148Z,83.52
2018-09-12T04:31:30.606Z,83.79
2018-09-12T04:32:35.072Z,83.69
2018-09-12T04:33:39.785Z,83.66
2018-09-12T04:34:44.297Z,83.78
2018-09-12T04:35:49.252Z,83.74
2018-09-12T04:36:53.921Z,83.84
2018-09-12T04:37:58.483Z,83.69
2018-09-12T04:39:03.078Z,83.64
2018-09-12T04:40:07.564Z,83.70
2018-09-12T04:41:12.645Z,83.90
2018-09-12T04:42:17.465Z,83.97
2018-09-12T04:43:22.064Z,83.97
2018-09-12T04:44:26.580Z,83.65
2018-09-12T04:45:31.072Z,83.97
2018-09-12T04:46:36.436Z,83.91
2018-09-12T04:47:40.934Z,84.09
2018-09-12T04:48:45.918Z,83.82
2018-09-12T04:49:50.444Z,84.08
2018-09-12T04:50:55.744Z,84.21
2018-09-12T04:52:00.176Z,84.13
2018-09-12T04:53:05.639Z,83.94
2018-09-12T04:54:10.120Z,84.13
2018-09-12T04:55:16.077Z,84.14
2018-09-12T04:56:22.403Z,84.22
2018-09-12T04:57:26.878Z,84.19
2018-09-12T04:58:31.372Z,83.96
2018-09-12T04:59:35.994Z,84.14
2018-09-12T05:00:45.116Z,83.95
2018-09-12T05:01:50.165Z,83.95
2018-09-12T05:02:54.714Z,83.96
2018-09-12T05:03:59.184Z,84.02
2018-09-12T05:05:03.797Z,84.16
2018-09-12T05:06:08.287Z,83.84
2018-09-12T05:07:12.816Z,84.09
2018-09-12T05:08:17.954Z,84.10
2018-09-12T05:09:22.430Z,84.09
2018-09-12T05:10:26.864Z,84.22
2018-09-12T05:11:31.570Z,84.33
2018-09-12T05:12:36.083Z,84.62
2018-09-12T05:13:40.625Z,84.62
2018-09-12T05:14:45.556Z,84.84
2018-09-12T05:15:50.095Z,84.85
2018-09-12T05:16:54.630Z,84.81
2018-09-12T05:18:00.057Z,84.72
2018-09-12T05:19:10.837Z,84.61
2018-09-12T05:20:15.853Z,84.32
2018-09-12T05:21:21.698Z,84.21
2018-09-12T05:22:27.843Z,84.29
2018-09-12T05:23:32.742Z,84.27
2018-09-12T05:24:37.229Z,84.17
2018-09-12T05:25:43.302Z,84.22
2018-09-12T05:26:48.894Z,84.19
2018-09-12T05:27:55.329Z,84.01
2018-09-12T05:28:59.782Z,84.10
2018-09-12T05:30:04.848Z,83.84
2018-09-12T05:33:46.976Z,83.95
2018-09-12T05:34:53.145Z,83.98
2018-09-12T05:35:57.666Z,84.07
2018-09-12T05:37:02.981Z,84.07
2018-09-12T05:38:07.516Z,83.82
2018-09-12T05:39:13.327Z,83.70
2018-09-12T05:40:21.879Z,83.75
2018-09-12T05:41:26.874Z,83.73
2018-09-12T05:42:31.421Z,84.05
2018-09-12T05:43:36.398Z,84.28
2018-09-12T05:44:42.163Z,84.32
2018-09-12T05:45:47.598Z,84.62
2018-09-12T05:46:52.056Z,84.34
2018-09-12T05:47:57.034Z,84.62
2018-09-12T05:49:02.300Z,84.46
2018-09-12T05:50:07.482Z,84.28
2018-09-12T05:51:11.947Z,84.39
2018-09-12T05:52:16.445Z,84.30
2018-09-12T05:53:21.050Z,84.06
2018-09-12T05:54:25.976Z,83.86
2018-09-12T05:55:30.488Z,83.70
2018-09-12T05:56:34.993Z,83.85
2018-09-12T05:57:39.512Z,83.83
2018-09-12T05:58:45.094Z,83.79
2018-09-12T05:59:49.581Z,83.49
2018-09-12T06:00:54.960Z,83.42
2018-09-12T06:01:59.422Z,83.34
2018-09-12T06:03:03.921Z,83.57
2018-09-12T06:04:08.496Z,83.29
2018-09-12T06:05:13.814Z,83.65
2018-09-12T06:06:18.262Z,83.26
2018-09-12T06:07:23.758Z,82.94
2018-09-12T06:08:28.360Z,82.37
2018-09-12T06:09:34.853Z,82.08
2018-09-12T06:10:42.700Z,82.20
2018-09-12T06:11:49.362Z,81.82
2018-09-12T06:12:54.774Z,81.40
2018-09-12T06:14:02.682Z,81.66
2018-09-12T06:15:08.376Z,81.14
2018-09-12T06:16:12.871Z,80.90
2018-09-12T06:17:18.712Z,80.24
2018-09-12T06:18:24.221Z,79.41
2018-09-12T06:19:29.934Z,79.45
2018-09-12T06:20:38.267Z,78.62
2018-09-12T06:21:42.814Z,78.63
2018-09-12T06:22:48.200Z,78.38
2018-09-12T06:23:54.141Z,78.02
2018-09-12T06:24:59.224Z,77.36
2018-09-12T06:26:04.305Z,76.73
2018-09-12T06:27:09.082Z,76.16
2018-09-12T06:28:14.603Z,75.42
2018-09-12T06:29:19.924Z,74.92
2018-09-12T06:30:25.116Z,73.68
2018-09-12T06:31:30.053Z,72.30
2018-09-12T06:32:35.313Z,71.88
2018-09-12T06:33:40.673Z,72.04
2018-09-12T06:34:45.247Z,71.31
2018-09-12T06:35:50.439Z,71.71
2018-09-12T06:36:55.439Z,70.57
2018-09-12T06:38:00.076Z,69.91
2018-09-12T06:39:05.447Z,69.57
2018-09-12T06:40:10.347Z,69.13
2018-09-12T06:41:16.418Z,68.55
2018-09-12T06:42:22.104Z,66.53
2018-09-12T06:43:28.800Z,65.71
2018-09-12T06:44:34.838Z,64.53
2018-09-12T06:45:40.645Z,63.79
2018-09-12T06:46:45.606Z,62.79
2018-09-12T06:47:51.271Z,62.65
2018-09-12T06:48:56.512Z,61.94
2018-09-12T06:50:03.745Z,61.61
2018-09-12T06:51:09.230Z,60.64
2018-09-12T06:52:15.477Z,59.99
2018-09-12T06:53:20.474Z,59.33
2018-09-12T06:54:25.042Z,59.06
2018-09-12T06:55:31.423Z,58.13
2018-09-12T06:56:37.420Z,56.90
2018-09-12T06:57:44.501Z,56.25
2018-09-12T06:58:50.098Z,55.98
2018-09-12T06:59:56.149Z,55.95
2018-09-12T07:01:02.858Z,54.35
2018-09-12T07:02:09.816Z,55.15
2018-09-12T07:03:14.796Z,53.34
2018-09-12T07:04:21.521Z,52.55
2018-09-12T07:05:26.049Z,52.23
2018-09-12T07:06:30.847Z,51.39
2018-09-12T07:07:38.331Z,50.79
2018-09-12T07:08:44.559Z,49.79
2018-09-12T07:09:52.582Z,49.41
2018-09-12T07:11:00.220Z,49.67
2018-09-12T07:12:05.522Z,49.12
2018-09-12T07:13:11.694Z,47.95
2018-09-12T07:14:18.340Z,48.33
2018-09-12T07:15:25.302Z,48.34
2018-09-12T07:17:44.803Z,48.25
2018-09-12T07:18:52.792Z,48.40
2018-09-12T07:19:59.355Z,48.31
2018-09-12T07:21:04.470Z,48.41
2018-09-12T07:22:10.316Z,47.85
2018-09-12T07:23:15.557Z,47.00
2018-09-12T07:24:24.156Z,100.00
2018-09-12T07:26:25.673Z,50.15
2018-09-12T07:27:31.794Z,100.00
2018-09-12T07:28:51.285Z,47.00
2018-09-12T07:29:58.819Z,41.92
2018-09-12T07:31:03.850Z,42.52
2018-09-12T07:32:09.624Z,40.97
2018-09-12T07:33:17.345Z,40.80
2018-09-12T07:34:23.365Z,100.00
2018-09-12T07:35:28.264Z,39.33
2018-09-12T07:36:32.861Z,39.15
2018-09-12T07:37:38.451Z,40.17
2018-09-12T07:38:43.537Z,39.09
2018-09-12T07:39:50.808Z,39.45
2018-09-12T07:40:56.628Z,100.00
2018-09-12T07:42:06.951Z,40.10
2018-09-12T07:43:26.380Z,100.00
2018-09-12T07:44:31.660Z,39.26
2018-09-12T07:45:37.227Z,37.95
2018-09-12T07:46:43.728Z,39.22
2018-09-12T07:47:49.588Z,37.78
2018-09-12T07:48:54.154Z,38.47
2018-09-12T07:49:58.765Z,38.47
2018-09-12T07:51:04.065Z,37.05
2018-09-12T07:52:09.877Z,36.77
2018-09-12T07:53:14.971Z,36.25
2018-09-12T07:54:20.084Z,36.75
2018-09-12T07:55:25.597Z,36.33
2018-09-12T07:56:34.463Z,35.70
2018-09-12T07:57:39.023Z,35.24
2018-09-12T07:58:44.193Z,35.41
2018-09-12T07:59:51.497Z,34.81
2018-09-12T08:00:56.992Z,35.19
2018-09-12T08:02:01.473Z,35.40
2018-09-12T08:03:08.101Z,35.63
2018-09-12T08:04:13.381Z,35.12
2018-09-12T08:05:18.293Z,35.30
2018-09-12T08:06:26.720Z,33.84
2018-09-12T08:07:31.932Z,33.05
2018-09-12T08:08:36.473Z,34.38
2018-09-12T08:09:41.258Z,34.74
2018-09-12T08:10:45.804Z,34.36
2018-09-12T08:11:50.684Z,34.32
2018-09-12T08:12:55.300Z,34.48
2018-09-12T08:14:00.878Z,34.55
2018-09-12T08:15:06.732Z,34.37
2018-09-12T08:16:11.312Z,33.55
2018-09-12T08:17:15.849Z,33.97
2018-09-12T08:18:22.142Z,33.18
2018-09-12T08:19:27.812Z,32.57
2018-09-12T08:20:33.852Z,33.16
2018-09-12T08:21:40.695Z,31.75
2018-09-12T08:22:46.531Z,31.03
2018-09-12T08:23:51.482Z,31.54
2018-09-12T08:24:59.082Z,31.78
2018-09-12T08:26:03.729Z,30.66
2018-09-12T08:27:12.341Z,29.89
2018-09-12T08:28:16.844Z,30.14
2018-09-12T08:29:21.434Z,28.92
2018-09-12T08:30:26.666Z,28.98
2018-09-12T08:31:32.724Z,27.74
2018-09-12T08:32:44.407Z,28.12
2018-09-12T08:33:50.728Z,30.18
2018-09-12T08:34:55.246Z,29.59
2018-09-12T08:36:00.228Z,28.34
2018-09-12T08:37:05.348Z,27.53
2018-09-12T08:38:11.854Z,27.50
2018-09-12T08:39:16.366Z,27.14
2018-09-12T08:40:21.828Z,27.02
2018-09-12T08:41:27.392Z,25.75
2018-09-12T08:42:34.135Z,25.94
2018-09-12T08:43:39.951Z,26.01
2018-09-12T08:44:47.971Z,25.25
2018-09-12T08:45:54.823Z,26.07
2018-09-12T08:47:03.451Z,26.14
2018-09-12T08:48:08.059Z,25.02
2018-09-12T08:49:13.714Z,25.34
2018-09-12T08:50:24.514Z,24.64
2018-09-12T08:51:29.059Z,23.93
2018-09-12T08:52:33.672Z,24.00
2018-09-12T08:53:41.155Z,24.87
2018-09-12T08:54:46.672Z,25.42
2018-09-12T08:55:51.228Z,27.31
2018-09-12T08:56:57.365Z,26.98
2018-09-12T08:58:02.696Z,25.92
2018-09-12T08:59:10.152Z,25.03
2018-09-12T09:00:15.299Z,24.62
2018-09-12T09:01:20.739Z,25.68
2018-09-12T09:02:25.244Z,25.24
2018-09-12T09:03:31.275Z,26.26
2018-09-12T09:04:36.817Z,25.60
2018-09-12T09:05:42.355Z,26.18
2018-09-12T09:06:47.901Z,25.75
2018-09-12T09:07:52.760Z,25.81
2018-09-12T09:08:59.533Z,30.29
2018-09-12T09:10:04.585Z,33.18
2018-09-12T09:11:09.083Z,35.06
2018-09-12T09:12:13.630Z,35.95
2018-09-12T09:13:18.105Z,35.10
2018-09-12T09:14:22.563Z,34.62
2018-09-12T09:15:27.979Z,33.65
2018-09-12T09:16:32.838Z,35.87
2018-09-12T09:17:37.423Z,36.47
2018-09-12T09:18:42.031Z,36.55
2018-09-12T09:19:46.579Z,36.37
2018-09-12T09:20:52.115Z,35.66
2018-09-12T09:21:57.777Z,37.56
2018-09-12T09:23:02.862Z,38.72
2018-09-12T09:24:08.741Z,40.61
2018-09-12T09:25:17.669Z,40.69
2018-09-12T09:26:22.164Z,40.75
2018-09-12T09:27:26.687Z,40.56
2018-09-12T09:28:31.208Z,40.81
2018-09-12T09:29:36.226Z,41.44
2018-09-12T09:30:41.526Z,42.89
2018-09-12T09:31:46.802Z,43.59
2018-09-12T09:32:51.330Z,44.25
2018-09-12T09:33:56.994Z,43.36
2018-09-12T09:35:11.474Z,43.75
2018-09-12T09:36:18.104Z,43.05
2018-09-12T09:37:32.234Z,42.77
2018-09-12T09:38:37.769Z,42.72
2018-09-12T09:39:42.294Z,42.45
2018-09-12T09:40:48.458Z,42.62
2018-09-12T09:41:53.450Z,43.57
2018-09-12T09:43:02.163Z,44.28
2018-09-12T09:44:08.405Z,44.91
2018-09-12T09:45:13.977Z,45.48
2018-09-12T09:46:18.471Z,45.15
2018-09-12T09:47:23.053Z,44.69
2018-09-12T09:48:28.119Z,44.31
2018-09-12T09:49:33.627Z,44.27
2018-09-12T09:50:38.366Z,44.30
2018-09-12T09:51:43.694Z,44.24
2018-09-12T09:52:48.300Z,45.25
2018-09-12T09:53:52.811Z,47.03
2018-09-12T09:54:58.368Z,46.54
2018-09-12T09:56:07.570Z,46.37
2018-09-12T09:57:12.780Z,45.73
2018-09-12T09:58:19.974Z,45.88
2018-09-12T09:59:24.625Z,100.00
2018-09-12T10:00:37.754Z,100.00
2018-09-12T10:01:55.069Z,100.00
2018-09-12T10:16:47.075Z,100.00
2018-09-12T10:18:37.711Z,46.14
2018-09-12T10:19:42.469Z,48.74
2018-09-12T10:20:47.388Z,45.41
2018-09-12T10:21:54.814Z,45.03
2018-09-12T10:22:59.780Z,45.53
2018-09-12T10:24:05.134Z,45.35
2018-09-12T10:25:11.297Z,45.00
2018-09-12T10:26:15.911Z,45.34
2018-09-12T10:27:21.421Z,45.18
2018-09-12T10:28:26.001Z,100.00
2018-09-12T10:29:31.768Z,44.91
2018-09-12T10:30:37.594Z,44.78
2018-09-12T10:32:52.890Z,45.76
2018-09-12T10:33:58.818Z,45.83
2018-09-12T10:35:03.577Z,46.12
2018-09-12T10:36:08.427Z,46.47
2018-09-12T10:37:16.706Z,46.81
2018-09-12T10:38:21.282Z,46.05
2018-09-12T10:39:25.762Z,46.47
2018-09-12T10:40:30.779Z,46.17
2018-09-12T10:41:35.330Z,45.66
2018-09-12T10:42:41.179Z,46.10
2018-09-12T10:43:45.660Z,45.86
2018-09-12T10:44:51.282Z,45.24
2018-09-12T10:45:55.804Z,45.17
2018-09-12T10:47:00.319Z,44.68
2018-09-12T10:48:04.848Z,45.63
2018-09-12T10:49:11.215Z,45.64
2018-09-12T10:50:15.666Z,45.94
2018-09-12T10:51:20.990Z,46.02
2018-09-12T10:52:27.460Z,46.51
2018-09-12T10:53:32.355Z,46.54
2018-09-12T10:54:36.864Z,46.41
2018-09-12T10:55:42.333Z,46.46
2018-09-12T10:56:47.602Z,46.17
2018-09-12T10:57:52.185Z,45.82
2018-09-12T10:58:56.697Z,45.73
2018-09-12T11:00:01.696Z,45.45
2018-09-12T11:01:07.413Z,45.82
2018-09-12T11:02:12.421Z,45.68
2018-09-12T11:03:17.080Z,45.27
2018-09-12T11:04:21.962Z,45.47
2018-09-12T11:05:27.112Z,45.54
2018-09-12T11:06:35.578Z,45.28
2018-09-12T11:07:40.773Z,46.08
2018-09-12T11:08:46.540Z,46.80
2018-09-12T11:09:51.861Z,46.73
2018-09-12T11:10:56.915Z,46.38
2018-09-12T11:12:02.114Z,46.77
2018-09-12T11:13:06.641Z,46.02
2018-09-12T11:14:13.490Z,45.01
2018-09-12T11:15:19.446Z,45.36
2018-09-12T11:16:24.960Z,45.22
2018-09-12T11:17:29.498Z,43.43
2018-09-12T11:18:34.666Z,44.17
2018-09-12T11:19:40.313Z,44.79
2018-09-12T11:20:44.795Z,42.85
2018-09-12T11:21:50.599Z,42.53
2018-09-12T11:22:56.313Z,42.94
2018-09-12T11:24:01.229Z,42.62
2018-09-12T11:25:06.843Z,43.74
2018-09-12T11:26:11.677Z,44.17
2018-09-12T11:27:16.241Z,43.44
2018-09-12T11:28:21.253Z,43.52
2018-09-12T11:29:26.934Z,43.12
2018-09-12T11:30:32.056Z,43.08
2018-09-12T11:31:37.060Z,43.05
2018-09-12T11:32:41.590Z,42.78
2018-09-12T11:33:48.061Z,43.79
2018-09-12T11:34:52.850Z,43.68
2018-09-12T11:35:59.153Z,43.62
2018-09-12T11:37:03.692Z,43.19
2018-09-12T11:38:08.264Z,42.45
2018-09-12T11:39:13.220Z,43.08
2018-09-12T11:40:18.784Z,43.11
2018-09-12T11:41:25.048Z,42.53
2018-09-12T11:42:29.803Z,42.39
2018-09-12T11:43:36.916Z,43.01
2018-09-12T11:44:42.703Z,43.00
2018-09-12T11:45:47.181Z,44.05
2018-09-12T11:46:53.076Z,45.09
2018-09-12T11:47:58.259Z,44.66
2018-09-12T11:49:03.098Z,43.32
2018-09-12T11:50:07.668Z,43.78
2018-09-12T11:51:12.771Z,42.93
2018-09-12T11:52:18.490Z,41.71
2018-09-12T11:53:23.501Z,41.94
2018-09-12T11:54:29.580Z,40.58
2018-09-12T11:55:35.594Z,40.48
2018-09-12T11:56:40.126Z,40.40
2018-09-12T11:57:44.701Z,40.61
2018-09-12T11:58:50.491Z,40.25
2018-09-12T11:59:54.984Z,40.45
2018-09-12T12:01:00.436Z,41.05
2018-09-12T12:02:07.537Z,39.38
2018-09-12T12:03:12.740Z,39.06
2018-09-12T12:05:39.935Z,40.47
2018-09-12T12:06:45.279Z,40.29
2018-09-12T12:07:50.622Z,41.01
2018-09-12T12:08:57.531Z,41.02
2018-09-12T12:10:02.646Z,41.50
2018-09-12T18:50:24.101Z,67.86
2018-09-12T18:51:28.825Z,68.15
2018-09-12T18:52:34.713Z,68.12
2018-09-12T18:53:41.430Z,67.92
2018-09-12T18:54:48.063Z,68.04
2018-09-12T18:55:53.678Z,67.91
2018-09-12T18:56:59.460Z,68.11
2018-09-12T18:58:06.835Z,68.04
2018-09-12T18:59:12.424Z,68.22
2018-09-12T19:00:17.069Z,68.06
2018-09-12T19:01:22.851Z,67.95
2018-09-12T19:02:29.814Z,68.32
2018-09-12T19:03:34.368Z,68.56
2018-09-12T19:04:39.685Z,68.44
2018-09-12T19:05:45.949Z,68.92
2018-09-12T19:06:53.337Z,68.82
2018-09-12T19:07:59.765Z,69.04
2018-09-12T19:09:05.465Z,69.04
2018-09-12T19:10:10.053Z,68.70
2018-09-12T19:11:16.479Z,68.97
2018-09-12T19:12:23.928Z,68.64
2018-09-12T19:13:34.756Z,69.46
2018-09-12T19:14:43.277Z,69.96
2018-09-12T19:15:48.852Z,69.73
2018-09-12T19:16:53.475Z,69.88
2018-09-12T19:17:58.351Z,70.05
2018-09-12T19:19:07.163Z,69.78
2018-09-12T19:20:14.278Z,69.58
2018-09-12T19:21:20.843Z,69.77
2018-09-12T19:22:27.334Z,70.29
2018-09-12T19:23:36.530Z,70.00
2018-09-12T19:24:46.284Z,69.72
2018-09-12T19:25:50.895Z,69.89
2018-09-12T19:28:17.506Z,69.56
2018-09-12T19:29:28.623Z,69.87
2018-09-12T19:30:37.507Z,70.02
2018-09-12T19:31:43.200Z,71.20
2018-09-12T19:32:50.608Z,70.68
2018-09-12T19:33:56.522Z,70.84
2018-09-12T19:35:05.162Z,70.73
2018-09-12T19:36:10.543Z,71.23
2018-09-12T19:37:16.768Z,71.08
2018-09-12T19:38:22.370Z,71.12
2018-09-12T19:39:27.247Z,70.98
2018-09-12T19:40:33.155Z,71.40
2018-09-12T19:41:39.372Z,71.86
2018-09-12T19:42:45.145Z,71.34
2018-09-12T19:43:50.356Z,0.00
2018-09-12T22:33:14.676Z,75.85
2018-09-12T22:34:20.383Z,76.03
2018-09-12T22:35:25.673Z,75.63
2018-09-12T22:36:30.512Z,75.86
2018-09-12T22:37:35.712Z,76.58
2018-09-12T22:38:42.506Z,75.47
2018-09-12T22:39:48.496Z,76.07
2018-09-12T22:40:54.170Z,76.26
2018-09-12T22:41:59.834Z,76.36
2018-09-12T22:43:05.688Z,75.76
2018-09-12T22:44:11.564Z,75.93
2018-09-12T22:45:18.351Z,76.28
2018-09-12T22:46:23.066Z,76.49
2018-09-12T22:47:28.728Z,76.10
2018-09-12T22:48:33.461Z,76.70
2018-09-12T22:49:38.593Z,76.60
2018-09-12T22:50:43.107Z,76.89
2018-09-12T22:51:48.048Z,76.63
2018-09-12T22:52:53.401Z,76.49
2018-09-12T22:53:59.096Z,77.08
2018-09-12T22:55:04.479Z,76.95
2018-09-12T22:56:08.986Z,76.45
2018-09-12T22:57:13.498Z,76.80
2018-09-12T22:58:18.283Z,76.46
2018-09-12T22:59:22.878Z,76.71
2018-09-12T23:00:28.847Z,76.50
2018-09-12T23:01:34.534Z,76.76
2018-09-12T23:02:39.509Z,76.79
2018-09-12T23:03:44.737Z,76.44
2018-09-12T23:04:50.566Z,76.19
2018-09-12T23:05:55.076Z,76.75
2018-09-12T23:07:01.583Z,77.03
2018-09-12T23:08:06.120Z,77.12
2018-09-12T23:09:11.066Z,77.59
2018-09-12T23:10:15.520Z,77.70
2018-09-12T23:11:20.632Z,77.82
2018-09-12T23:15:02.211Z,78.25
2018-09-12T23:16:06.682Z,78.57
2018-09-12T23:17:11.906Z,79.18
2018-09-12T23:18:16.643Z,79.34
2018-09-12T23:19:22.682Z,79.42
2018-09-12T23:20:27.237Z,79.30
2018-09-12T23:21:31.689Z,79.09
2018-09-12T23:22:36.180Z,79.04
2018-09-12T23:23:40.691Z,78.80
2018-09-12T23:24:45.530Z,79.03
2018-09-12T23:25:51.000Z,78.87
2018-09-12T23:26:55.540Z,78.81
2018-09-12T23:28:00.019Z,79.05
2018-09-12T23:29:04.655Z,79.04
2018-09-12T23:30:09.252Z,79.36
2018-09-12T23:31:14.007Z,79.47
2018-09-12T23:32:18.442Z,79.70
2018-09-12T23:33:22.931Z,79.57
2018-09-12T23:34:27.480Z,79.52
2018-09-12T23:35:31.961Z,79.52
2018-09-12T23:36:36.422Z,79.16
2018-09-12T23:37:41.233Z,79.01
2018-09-12T23:38:45.727Z,78.96
2018-09-12T23:39:50.168Z,79.03
2018-09-12T23:40:54.812Z,78.56
2018-09-12T23:41:59.681Z,78.57
2018-09-12T23:43:04.169Z,78.81
2018-09-12T23:44:10.415Z,78.41
2018-09-12T23:45:14.866Z,78.58
2018-09-12T23:46:19.371Z,78.47
2018-09-12T23:47:23.838Z,78.58
2018-09-12T23:48:28.271Z,78.35
2018-09-12T23:49:32.828Z,78.64
2018-09-12T23:50:38.245Z,78.23
2018-09-12T23:51:42.775Z,78.67
2018-09-12T23:52:47.291Z,78.54
2018-09-12T23:53:51.768Z,78.66
2018-09-12T23:54:57.976Z,78.72
2018-09-12T23:56:02.431Z,78.87
2018-09-12T23:57:09.321Z,79.06
2018-09-12T23:58:13.782Z,79.33
2018-09-12T23:59:19.048Z,79.60
